Main page
METAR-TAF:

METAR-TAF

Airports :

Honiara International Airport

Honiara, Guadalcanal, Solomon Islands

latitude: 09-25S, longitude: 160-03E, elevation: 8 m

Current weather observation

The report was made 16 minutes ago, at 14:00 UTC
Wind 3 kt from the South/Southeast
Temperature 26°C
Humidity 89%
Pressure 1008 hPa
Visibility 10 km or more
Few clouds at a height of 1600 ft

METAR: AGGH 291400Z 16003KT 9999 FEW016 26/24 Q1008

Time: 01:16 (14:16 UTC)

Forecast

The report was made 9 hours and 4 minutes ago, at 05:12 UTC
Forecast valid from 29 at 06 UTC to 01 at 06 UTC
Wind 3 kt from variable directions
Visibility: 1006 m
Scattered clouds at a height of 1800 ft

TAF: AGGH 290512Z 2906/0106 VRB03KT 9999 SCT018 T 31 28 26 24 Q 1005 1007 1008 1006

Weather observations and forecasts of more than 4000 airports (METAR and TAF reports).

The available stations are represented by yellow and red dots on the map.

Hover mouse over dot to see the name of the station.

Then click to see weather observations and forecasts.

To change the map : click on the green buttons with a black cross to zoom in, on the green button with a dash to zoom out, or on the green arrows for adjacent maps.


METAR-TAF: